Terminal Aerodrome Forecast
Issued by NWS

Home | Current Version | Previous Version | Text Only | Print | Product List | Glossary On
Versions: 1 2 3 4 5 6 7 8 9 10 11 12 13 14
000
FTUS45 KABQ 222300
TAFSAF
TAF
KSAF 222331Z 2300/2324 18010KT P6SM VCSH SCT050 BKN060
      TEMPO 2301/2303 VRB15G25KT -TSRA OVC040CB
     FM230300 15008KT P6SM VCSH SCT025 BKN040 OVC100
     FM230600 VRB05KT P6SM SCT025 BKN050
      TEMPO 2310/2314 BKN025
     FM232000 28010KT P6SM SCT040 BKN100=

USA.gov is the U.S. government's official web portal to all federal, state and local government web resources and services.